Time;durP1;ratioP1;P1;durP2;ratioP2;P2;SDS_P1;SDS_P2;PMS_P1;PMS_P2;Temp;Humidity;BMP_temperature;BMP_pressure;BME280_temperature;BME280_humidity;BME280_pressure;Samples;Min_cycle;Max_cycle;Signal;HPM_P1;HPM_P2
2023/01/14 00:01:05;;;;;;;212.50;103.00;;;;;;;4.27;100.00;94918.09;5023851;28;20247;-77
2023/01/14 00:03:32;;;;;;;233.60;109.03;;;;;;;4.27;100.00;94900.09;5023939;28;20217;-77
2023/01/14 00:06:01;;;;;;;221.47;106.80;;;;;;;4.30;100.00;94910.03;5025901;28;20238;-78
2023/01/14 00:08:29;;;;;;;212.23;103.13;;;;;;;4.34;100.00;94908.69;5023458;28;20187;-78
2023/01/14 00:10:56;;;;;;;200.43;97.93;;;;;;;4.38;100.00;94909.97;5023552;28;20195;-76
2023/01/14 00:13:23;;;;;;;194.93;93.40;;;;;;;4.39;100.00;94914.91;5026029;28;20217;-79
2023/01/14 00:15:52;;;;;;;186.87;92.83;;;;;;;4.37;100.00;94906.59;5023562;28;20538;-78
2023/01/14 00:18:19;;;;;;;193.33;94.50;;;;;;;4.42;100.00;94906.84;5024202;28;20250;-78
2023/01/14 00:20:56;;;;;;;180.00;87.73;;;;;;;4.43;100.00;94905.09;5024030;28;20226;-77
2023/01/14 00:23:25;;;;;;;145.90;70.33;;;;;;;4.40;100.00;94906.22;5025246;28;20237;-77
2023/01/14 00:25:52;;;;;;;128.43;62.27;;;;;;;4.27;100.00;94888.00;5023865;28;20199;-78
2023/01/14 00:28:19;;;;;;;133.60;64.67;;;;;;;4.18;100.00;94881.34;5024838;28;20254;-79
2023/01/14 00:30:46;;;;;;;125.40;60.57;;;;;;;4.34;100.00;94899.22;5024919;28;20197;-78
2023/01/14 00:33:13;;;;;;;119.53;57.07;;;;;;;4.33;100.00;94892.44;5024332;28;20216;-79
2023/01/14 00:35:39;;;;;;;93.73;49.13;;;;;;;4.32;100.00;94896.03;5026437;28;20199;-79
2023/01/14 00:38:06;;;;;;;142.83;69.57;;;;;;;4.36;100.00;94902.41;5025632;28;20202;-79
2023/01/14 00:40:34;;;;;;;136.97;63.50;;;;;;;4.31;100.00;94898.75;5024407;28;20195;-79
2023/01/14 00:43:01;;;;;;;121.03;59.80;;;;;;;4.25;100.00;94891.72;5026039;28;20219;-80
2023/01/14 00:45:28;;;;;;;123.00;57.97;;;;;;;4.29;100.00;94900.69;5025653;28;20275;-78
2023/01/14 00:47:55;;;;;;;115.50;55.50;;;;;;;4.26;100.00;94890.75;5024680;28;20203;-79
2023/01/14 00:50:22;;;;;;;110.00;54.50;;;;;;;4.28;100.00;94896.53;5026267;28;20203;-80
2023/01/14 00:52:48;;;;;;;97.77;51.63;;;;;;;4.18;100.00;94895.97;5023948;28;20214;-77
2023/01/14 00:55:15;;;;;;;101.57;48.80;;;;;;;4.19;100.00;94895.78;5023334;28;20202;-76
2023/01/14 00:57:43;;;;;;;82.43;43.27;;;;;;;4.24;100.00;94898.63;5024402;28;20200;-78
2023/01/14 01:00:11;;;;;;;69.50;38.67;;;;;;;4.19;100.00;94889.84;5025157;28;20203;-78
2023/01/14 01:02:38;;;;;;;73.67;36.87;;;;;;;4.32;100.00;94897.78;5025194;28;20224;-77
2023/01/14 01:05:06;;;;;;;77.23;39.83;;;;;;;4.27;100.00;94903.44;5024930;28;20561;-78
2023/01/14 01:07:33;;;;;;;82.23;43.57;;;;;;;4.25;100.00;94902.00;5025335;28;20209;-78
2023/01/14 01:09:59;;;;;;;87.07;44.23;;;;;;;4.26;100.00;94901.03;5024136;28;20251;-78
2023/01/14 01:12:26;;;;;;;98.77;49.57;;;;;;;4.32;100.00;94906.31;5025365;28;20188;-78
2023/01/14 01:14:55;;;;;;;102.33;51.00;;;;;;;4.40;100.00;94900.28;5024190;28;20207;-78
2023/01/14 01:17:22;;;;;;;91.83;46.07;;;;;;;4.47;100.00;94896.81;5023607;28;20214;-78
2023/01/14 01:19:50;;;;;;;88.77;45.77;;;;;;;4.46;100.00;94894.44;5025695;28;20219;-77
2023/01/14 01:22:18;;;;;;;81.13;41.60;;;;;;;4.47;100.00;94893.47;5028410;28;20212;-78
2023/01/14 01:24:45;;;;;;;63.80;32.10;;;;;;;4.44;100.00;94896.41;5024807;28;20290;-77
2023/01/14 01:27:12;;;;;;;50.97;28.57;;;;;;;4.41;100.00;94894.97;5028424;28;20707;-77
2023/01/14 01:29:39;;;;;;;50.23;29.40;;;;;;;4.37;100.00;94892.91;5028592;28;20200;-77
2023/01/14 01:32:07;;;;;;;57.73;31.03;;;;;;;4.35;100.00;94887.16;5027748;28;20218;-78
2023/01/14 01:34:34;;;;;;;53.03;31.93;;;;;;;4.28;100.00;94869.03;5028216;28;20291;-78
2023/01/14 01:37:01;;;;;;;49.13;29.40;;;;;;;4.41;100.00;94889.03;5028401;28;20655;-77
2023/01/14 01:39:28;;;;;;;48.83;27.77;;;;;;;4.27;100.00;94851.22;5027968;28;20192;-79
2023/01/14 01:41:55;;;;;;;45.60;25.53;;;;;;;4.36;100.00;94876.69;5028420;28;20239;-79
2023/01/14 01:44:59;;;;;;;45.47;25.57;;;;;;;4.26;100.00;94873.56;5028914;28;20674;-80
2023/01/14 01:47:27;;;;;;;47.10;24.47;;;;;;;4.26;100.00;94877.91;5027875;28;20579;-81
2023/01/14 01:49:54;;;;;;;42.97;25.03;;;;;;;4.24;100.00;94880.63;5027909;28;20202;-81
2023/01/14 01:52:25;;;;;;;55.43;28.97;;;;;;;4.20;100.00;94871.69;5028968;28;20196;-81
2023/01/14 01:54:55;;;;;;;52.37;29.60;;;;;;;4.18;100.00;94873.63;5028528;28;20193;-80
2023/01/14 01:57:23;;;;;;;53.07;28.50;;;;;;;4.12;100.00;94865.81;5028360;28;20212;-79
2023/01/14 01:59:54;;;;;;;62.57;32.10;;;;;;;4.06;100.00;94864.72;5029454;28;20201;-78
2023/01/14 02:02:23;;;;;;;58.93;30.47;;;;;;;4.01;100.00;94872.16;5027290;28;20729;-78
2023/01/14 02:04:51;;;;;;;53.53;28.30;;;;;;;3.97;100.00;94866.56;5027342;28;20231;-78
2023/01/14 02:07:20;;;;;;;60.97;30.60;;;;;;;3.96;100.00;94871.84;5028698;28;20565;-80
2023/01/14 02:09:48;;;;;;;48.23;26.90;;;;;;;3.99;100.00;94869.75;5028538;28;20200;-80
2023/01/14 02:12:32;;;;;;;46.73;26.40;;;;;;;3.93;100.00;94867.88;5027903;28;20203;-79
2023/01/14 02:15:14;;;;;;;80.80;42.07;;;;;;;3.97;100.00;94874.28;5027407;28;20206;-79
2023/01/14 02:17:52;;;;;;;76.87;39.57;;;;;;;4.04;100.00;94876.94;5029811;28;20444;-78
2023/01/14 02:20:26;;;;;;;93.13;43.43;;;;;;;4.07;100.00;94873.25;5027203;28;20195;-78
2023/01/14 02:23:49;;;;;;;98.77;47.37;;;;;;;3.99;100.00;94872.31;5025458;28;20219;-78
2023/01/14 02:26:47;;;;;;;107.00;47.43;;;;;;;3.96;100.00;94867.53;5003897;28;20667;-78
2023/01/14 02:29:40;;;;;;;103.80;44.00;;;;;;;4.03;100.00;94867.63;5027477;28;20195;-79
2023/01/14 02:32:14;;;;;;;70.93;34.93;;;;;;;3.97;100.00;94865.75;5028874;28;20189;-79
2023/01/14 02:34:50;;;;;;;75.27;37.00;;;;;;;3.91;100.00;94856.16;5026723;28;20182;-79
2023/01/14 02:37:24;;;;;;;63.57;31.67;;;;;;;3.94;100.00;94848.09;5026596;28;20183;-79
2023/01/14 02:39:57;;;;;;;56.07;30.63;;;;;;;4.00;100.00;94862.84;5029111;28;20924;-80
2023/01/14 02:45:16;;;;;;;63.63;31.30;;;;;;;3.90;100.00;94860.50;5026304;28;20205;-77
2023/01/14 02:47:46;;;;;;;64.00;31.53;;;;;;;3.83;100.00;94854.47;5027485;28;20187;-77
2023/01/14 02:50:14;;;;;;;61.80;32.33;;;;;;;3.93;100.00;94869.63;5027151;28;20662;-77
2023/01/14 02:52:41;;;;;;;68.77;33.97;;;;;;;3.92;100.00;94871.44;5026222;28;20662;-77
2023/01/14 02:55:30;;;;;;;58.60;30.93;;;;;;;3.91;100.00;94869.00;5024911;28;20638;-77
2023/01/14 02:58:16;;;;;;;56.50;30.07;;;;;;;3.80;100.00;94844.53;5026477;28;20198;-77
2023/01/14 03:00:54;;;;;;;57.90;30.53;;;;;;;3.96;100.00;94867.53;5025123;28;20237;-77
2023/01/14 03:03:42;;;;;;;53.13;30.27;;;;;;;3.98;100.00;94863.00;5025428;28;20218;-77
2023/01/14 03:06:26;;;;;;;50.27;27.47;;;;;;;3.94;100.00;94861.75;5027402;28;20211;-78
2023/01/14 03:08:56;;;;;;;51.90;28.27;;;;;;;3.97;100.00;94871.69;5026128;28;20203;-78
2023/01/14 03:11:31;;;;;;;57.30;29.57;;;;;;;3.95;100.00;94860.00;5025607;28;20218;-78
2023/01/14 03:14:03;;;;;;;63.13;30.67;;;;;;;3.99;100.00;94872.31;5025065;28;20200;-78
2023/01/14 03:16:41;;;;;;;62.10;32.90;;;;;;;3.98;100.00;94872.50;5027203;28;20201;-78
2023/01/14 03:19:12;;;;;;;89.60;45.53;;;;;;;4.01;100.00;94864.44;5025908;28;20190;-78
2023/01/14 03:21:44;;;;;;;86.97;47.07;;;;;;;4.01;100.00;94861.88;5026494;28;20229;-79
2023/01/14 03:24:14;;;;;;;65.57;31.80;;;;;;;4.01;100.00;94852.38;5026681;28;20687;-79
2023/01/14 03:26:44;;;;;;;53.37;27.30;;;;;;;4.03;100.00;94859.94;5026362;28;20640;-78
2023/01/14 03:29:16;;;;;;;47.70;25.87;;;;;;;4.03;100.00;94861.69;5026882;28;20190;-79
2023/01/14 03:31:55;;;;;;;47.07;25.20;;;;;;;3.85;100.00;94861.97;5028053;28;20191;-79
2023/01/14 03:34:27;;;;;;;43.20;24.20;;;;;;;3.77;100.00;94856.91;5028583;28;20194;-78
2023/01/14 03:36:57;;;;;;;47.97;24.97;;;;;;;3.69;100.00;94849.25;5026511;28;20195;-79
2023/01/14 03:39:29;;;;;;;40.20;22.57;;;;;;;3.58;100.00;94850.44;5028007;28;20661;-80
2023/01/14 03:42:19;;;;;;;38.80;23.10;;;;;;;3.66;100.00;94847.03;5028439;28;20202;-78
2023/01/14 03:44:54;;;;;;;41.13;22.33;;;;;;;3.72;100.00;94859.19;5025540;28;20191;-77
2023/01/14 03:47:24;;;;;;;37.20;21.07;;;;;;;3.74;100.00;94849.53;5026525;28;20182;-78
2023/01/14 03:49:51;;;;;;;38.33;19.90;;;;;;;3.77;100.00;94854.34;5026766;28;20190;-77
2023/01/14 03:52:26;;;;;;;52.03;27.50;;;;;;;3.71;100.00;94849.88;5025464;28;20199;-79
2023/01/14 03:55:01;;;;;;;55.17;29.97;;;;;;;3.70;100.00;94849.06;5025258;28;20210;-79
2023/01/14 03:57:33;;;;;;;59.63;31.53;;;;;;;3.75;100.00;94843.44;5026254;28;20187;-79
2023/01/14 04:00:02;;;;;;;50.33;28.87;;;;;;;3.86;100.00;94850.75;5026796;28;20191;-80
2023/01/14 04:02:31;;;;;;;48.37;25.03;;;;;;;3.79;100.00;94847.25;5025067;28;20219;-79
2023/01/14 04:04:59;;;;;;;46.97;24.70;;;;;;;3.80;100.00;94839.38;5025009;28;20241;-78
2023/01/14 04:07:27;;;;;;;47.37;26.17;;;;;;;3.61;100.00;94829.53;5026552;28;20199;-79
2023/01/14 04:09:53;;;;;;;46.70;26.87;;;;;;;3.63;100.00;94837.09;5025213;28;20215;-79
2023/01/14 04:12:20;;;;;;;44.23;24.57;;;;;;;3.66;100.00;94834.19;5024799;28;20191;-78
2023/01/14 04:17:37;;;;;;;45.43;24.33;;;;;;;3.68;100.00;94838.16;5025253;28;20199;-80
2023/01/14 04:20:05;;;;;;;51.07;26.43;;;;;;;3.76;100.00;94837.31;5025349;28;20249;-80
2023/01/14 04:22:32;;;;;;;47.13;25.13;;;;;;;3.67;100.00;94836.56;5026933;28;20226;-79
2023/01/14 04:24:59;;;;;;;45.70;24.57;;;;;;;3.61;100.00;94831.34;5025114;28;20198;-78
2023/01/14 04:27:26;;;;;;;45.30;25.27;;;;;;;3.60;100.00;94829.72;5024525;28;20211;-79
2023/01/14 04:29:53;;;;;;;47.87;26.20;;;;;;;3.58;100.00;94829.09;5026370;28;20625;-79
2023/01/14 04:32:20;;;;;;;47.83;25.83;;;;;;;3.66;100.00;94831.59;5024393;28;20199;-79
2023/01/14 04:34:48;;;;;;;50.13;28.03;;;;;;;3.58;100.00;94835.00;5023534;28;20204;-79
2023/01/14 04:37:15;;;;;;;50.10;29.17;;;;;;;3.40;100.00;94817.34;5023376;28;20200;-78
2023/01/14 04:39:42;;;;;;;57.00;31.33;;;;;;;3.36;100.00;94834.03;5023997;28;20207;-78
2023/01/14 04:44:53;;;;;;;61.57;33.87;;;;;;;3.41;100.00;94831.75;5026395;28;20199;-78
2023/01/14 04:47:20;;;;;;;46.87;25.90;;;;;;;3.37;100.00;94827.13;5024989;28;20202;-78
2023/01/14 04:49:48;;;;;;;54.50;28.03;;;;;;;3.25;100.00;94823.34;5022620;28;20191;-77
2023/01/14 04:52:15;;;;;;;53.90;27.87;;;;;;;3.25;100.00;94829.28;5026483;28;20282;-77
2023/01/14 04:54:42;;;;;;;60.20;31.00;;;;;;;3.26;100.00;94830.88;5025215;28;20187;-77
2023/01/14 04:57:10;;;;;;;65.20;34.10;;;;;;;3.22;100.00;94841.66;5028594;28;20198;-77
2023/01/14 04:59:37;;;;;;;73.00;37.43;;;;;;;3.13;100.00;94834.97;5029155;28;20282;-79
2023/01/14 05:02:04;;;;;;;68.23;38.50;;;;;;;3.17;100.00;94834.47;5028162;28;20203;-78
2023/01/14 05:04:31;;;;;;;67.53;33.97;;;;;;;3.16;100.00;94840.56;5027248;28;20239;-77
2023/01/14 05:07:01;;;;;;;61.60;33.97;;;;;;;3.15;100.00;94840.72;5029227;28;20198;-78
2023/01/14 05:09:28;;;;;;;87.67;45.27;;;;;;;3.17;100.00;94843.94;5027701;28;20197;-78
2023/01/14 05:11:55;;;;;;;107.70;53.33;;;;;;;3.14;100.00;94839.13;5027256;28;20206;-78
2023/01/14 05:14:21;;;;;;;85.63;46.00;;;;;;;3.11;100.00;94832.56;5028742;28;20207;-78
2023/01/14 05:16:48;;;;;;;76.43;41.90;;;;;;;3.13;100.00;94829.81;5027168;28;20203;-78
2023/01/14 05:19:15;;;;;;;81.70;45.10;;;;;;;3.16;100.00;94838.00;5026024;28;20674;-79
2023/01/14 05:21:45;;;;;;;92.30;51.23;;;;;;;3.11;100.00;94836.91;5029234;28;20347;-77
2023/01/14 05:24:13;;;;;;;95.27;50.07;;;;;;;3.22;100.00;94846.78;5029113;28;20294;-79
2023/01/14 05:26:40;;;;;;;127.60;65.13;;;;;;;3.22;100.00;94847.59;5027808;28;20248;-78
2023/01/14 05:29:07;;;;;;;124.20;64.37;;;;;;;3.26;100.00;94840.38;5028445;28;20576;-78
2023/01/14 05:31:34;;;;;;;124.60;64.60;;;;;;;3.18;100.00;94842.94;5028782;28;20199;-78
2023/01/14 05:34:00;;;;;;;128.17;65.77;;;;;;;3.11;100.00;94847.97;5027309;28;20939;-77
2023/01/14 05:36:28;;;;;;;127.90;61.23;;;;;;;3.03;100.00;94844.66;5027468;28;20215;-77
2023/01/14 05:38:54;;;;;;;128.73;65.40;;;;;;;3.03;100.00;94849.78;5028295;28;20274;-77
2023/01/14 05:41:22;;;;;;;133.13;64.90;;;;;;;3.10;100.00;94855.84;5026900;28;20689;-77
2023/01/14 05:46:33;;;;;;;139.97;73.57;;;;;;;3.15;100.00;94854.34;5028954;28;20760;-78
2023/01/14 05:49:02;;;;;;;160.03;80.70;;;;;;;3.19;100.00;94844.56;5027016;28;20214;-78
2023/01/14 05:51:29;;;;;;;177.87;88.07;;;;;;;3.20;100.00;94857.22;5026533;28;20582;-77
2023/01/14 05:53:56;;;;;;;127.67;62.40;;;;;;;3.06;100.00;94842.53;5028585;28;20191;-77
2023/01/14 05:56:24;;;;;;;157.23;79.03;;;;;;;3.21;100.00;94858.03;5026902;28;20198;-79
2023/01/14 05:58:51;;;;;;;112.73;54.73;;;;;;;3.31;100.00;94861.19;5026313;28;20596;-79
2023/01/14 06:06:48;;;;;;;103.63;51.67;;;;;;;3.23;100.00;94867.16;5024053;28;20245;-78
2023/01/14 06:09:17;;;;;;;78.30;39.60;;;;;;;3.18;100.00;94859.16;5028810;28;20218;-79
2023/01/14 06:12:01;;;;;;;55.00;28.20;;;;;;;3.28;100.00;94864.09;5026907;28;20201;-79
2023/01/14 06:14:28;;;;;;;62.30;31.10;;;;;;;3.24;100.00;94840.53;5027238;28;20240;-78
2023/01/14 06:16:57;;;;;;;65.07;32.17;;;;;;;3.36;100.00;94858.91;5027319;28;20207;-78
2023/01/14 06:19:24;;;;;;;67.27;35.03;;;;;;;3.34;100.00;94859.09;5027612;28;20186;-78
2023/01/14 06:21:52;;;;;;;57.63;31.50;;;;;;;3.36;100.00;94862.28;5027009;28;20283;-78
2023/01/14 06:24:18;;;;;;;57.63;29.93;;;;;;;3.42;100.00;94861.63;5027657;28;20222;-78
2023/01/14 06:26:47;;;;;;;79.50;38.83;;;;;;;3.49;100.00;94859.19;5027789;28;20218;-79
2023/01/14 06:29:14;;;;;;;86.23;42.23;;;;;;;3.54;100.00;94858.66;5026607;28;20213;-80
2023/01/14 06:31:42;;;;;;;78.57;42.73;;;;;;;3.58;100.00;94865.84;5026075;28;20210;-78
2023/01/14 06:34:09;;;;;;;78.63;40.80;;;;;;;3.43;100.00;94849.56;5027914;28;20187;-74
2023/01/14 06:36:37;;;;;;;82.27;42.10;;;;;;;3.46;100.00;94854.38;5024982;28;20554;-74
2023/01/14 06:39:04;;;;;;;86.93;43.43;;;;;;;3.51;100.00;94866.69;5025124;28;20206;-73
2023/01/14 06:41:31;;;;;;;95.93;48.63;;;;;;;3.50;100.00;94863.31;5025791;28;20218;-74
2023/01/14 06:43:59;;;;;;;99.13;50.37;;;;;;;3.54;100.00;94867.16;5024462;28;20215;-74
2023/01/14 06:46:26;;;;;;;114.50;56.47;;;;;;;3.54;100.00;94867.16;5024046;28;20204;-74
2023/01/14 06:48:53;;;;;;;148.73;70.30;;;;;;;3.69;100.00;94868.03;5026714;28;20218;-74
2023/01/14 06:51:20;;;;;;;140.63;64.70;;;;;;;3.72;100.00;94872.03;5024580;28;20196;-74
2023/01/14 06:53:47;;;;;;;115.90;54.33;;;;;;;3.68;100.00;94857.91;5024389;28;20222;-74
2023/01/14 06:56:17;;;;;;;105.07;53.47;;;;;;;3.81;100.00;94869.22;5026792;28;20186;-73
2023/01/14 06:58:46;;;;;;;102.27;51.13;;;;;;;3.83;100.00;94861.38;5024661;28;20206;-74
2023/01/14 07:01:15;;;;;;;87.73;45.17;;;;;;;3.94;100.00;94873.81;5021489;28;20216;-74
2023/01/14 07:03:42;;;;;;;68.97;37.03;;;;;;;3.98;100.00;94872.50;5025576;28;20215;-74
2023/01/14 07:06:09;;;;;;;75.80;39.90;;;;;;;3.93;100.00;94874.78;5023958;28;20193;-75
2023/01/14 07:08:36;;;;;;;72.40;37.93;;;;;;;3.91;100.00;94872.38;5023929;28;20191;-76
2023/01/14 07:11:03;;;;;;;56.03;31.50;;;;;;;3.92;100.00;94879.13;5025809;28;20192;-74
2023/01/14 07:13:29;;;;;;;42.50;24.40;;;;;;;3.95;100.00;94881.34;5023586;28;20998;-73
2023/01/14 07:15:57;;;;;;;35.80;20.43;;;;;;;4.01;100.00;94880.66;5024100;28;20218;-73
2023/01/14 07:18:26;;;;;;;32.80;18.27;;;;;;;4.11;100.00;94887.34;5026180;28;20233;-75
2023/01/14 07:20:56;;;;;;;29.67;17.20;;;;;;;4.10;100.00;94875.47;5013937;28;20283;-74
2023/01/14 07:23:23;;;;;;;27.47;16.93;;;;;;;4.23;100.00;94889.34;5023067;28;20256;-74
2023/01/14 07:25:50;;;;;;;27.60;15.57;;;;;;;4.36;100.00;94891.31;5026398;28;20188;-75
2023/01/14 07:28:16;;;;;;;28.57;15.50;;;;;;;4.45;100.00;94892.84;5024090;28;20709;-75
2023/01/14 07:30:43;;;;;;;27.93;16.10;;;;;;;4.49;100.00;94894.09;5023707;28;20705;-74
2023/01/14 07:33:10;;;;;;;28.90;16.33;;;;;;;4.48;100.00;94895.06;5026191;28;20199;-74
2023/01/14 07:35:38;;;;;;;29.47;17.07;;;;;;;4.56;100.00;94907.84;5024025;28;20550;-74
2023/01/14 07:38:05;;;;;;;33.87;17.30;;;;;;;4.60;100.00;94896.25;5023624;28;20199;-75
2023/01/14 07:40:32;;;;;;;28.17;16.17;;;;;;;4.70;100.00;94904.53;5026621;28;20202;-73
2023/01/14 07:43:00;;;;;;;31.83;16.57;;;;;;;4.69;100.00;94894.38;5023843;28;20600;-73
2023/01/14 07:45:29;;;;;;;28.60;17.37;;;;;;;4.76;100.00;94897.88;5022866;28;20697;-74
2023/01/14 07:47:56;;;;;;;30.83;17.33;;;;;;;4.84;100.00;94910.66;5025924;28;20204;-74
2023/01/14 07:50:23;;;;;;;31.20;17.50;;;;;;;4.94;100.00;94906.03;5023127;28;20216;-74
2023/01/14 07:52:55;;;;;;;33.90;17.83;;;;;;;5.01;100.00;94901.78;5024403;28;20685;-73
2023/01/14 07:55:22;;;;;;;32.60;17.90;;;;;;;5.01;100.00;94905.16;5026135;28;20257;-74
2023/01/14 07:57:49;;;;;;;30.00;17.87;;;;;;;5.06;100.00;94904.63;5023998;28;20212;-75
2023/01/14 08:00:17;;;;;;;30.30;17.03;;;;;;;5.10;100.00;94906.69;5024380;28;20205;-73
2023/01/14 08:02:44;;;;;;;32.53;18.47;;;;;;;5.21;100.00;94907.19;5026272;28;20209;-74
2023/01/14 08:05:11;;;;;;;30.87;19.27;;;;;;;5.26;100.00;94904.88;5024060;28;20224;-73
2023/01/14 08:07:38;;;;;;;32.10;19.10;;;;;;;5.31;100.00;94910.31;5024180;28;20233;-74
2023/01/14 08:10:09;;;;;;;32.57;18.30;;;;;;;5.28;100.00;94895.22;5026234;28;20205;-74
2023/01/14 08:12:36;;;;;;;32.73;18.60;;;;;;;5.46;100.00;94908.50;5024498;28;20193;-74
2023/01/14 08:15:04;;;;;;;32.93;18.87;;;;;;;5.48;100.00;94912.47;5024174;28;20198;-74
2023/01/14 08:17:31;;;;;;;35.57;19.90;;;;;;;5.46;100.00;94918.81;5026387;28;20198;-74
2023/01/14 08:19:58;;;;;;;36.80;19.67;;;;;;;5.49;100.00;94916.66;5024091;28;20196;-74
2023/01/14 08:22:25;;;;;;;37.70;20.00;;;;;;;5.63;100.00;94926.16;5024337;28;20269;-75
2023/01/14 08:24:52;;;;;;;41.20;20.67;;;;;;;5.65;100.00;94919.06;5025858;28;20590;-74
2023/01/14 08:27:20;;;;;;;43.67;20.77;;;;;;;5.64;100.00;94920.03;5023817;28;20205;-74
2023/01/14 08:29:47;;;;;;;36.43;21.67;;;;;;;5.60;100.00;94928.28;5023601;28;20202;-73
2023/01/14 08:32:14;;;;;;;35.63;21.27;;;;;;;5.59;100.00;94924.94;5025968;28;20200;-74
2023/01/14 08:34:41;;;;;;;42.20;21.50;;;;;;;5.56;100.00;94920.13;5025164;28;20218;-86
2023/01/14 08:37:08;;;;;;;40.20;22.27;;;;;;;5.61;100.00;94935.06;5024853;28;20204;-76
2023/01/14 08:39:35;;;;;;;39.97;22.33;;;;;;;5.65;100.00;94934.53;5025067;28;20679;-76
2023/01/14 08:42:02;;;;;;;38.10;21.20;;;;;;;5.69;100.00;94933.16;5024069;28;20205;-76
2023/01/14 08:44:30;;;;;;;37.77;22.43;;;;;;;5.75;100.00;94936.81;5023569;28;20225;-76
2023/01/14 08:46:57;;;;;;;39.90;23.90;;;;;;;5.85;100.00;94936.53;5025772;28;20223;-77
2023/01/14 08:49:24;;;;;;;42.33;24.20;;;;;;;5.86;100.00;94935.59;5024714;28;20202;-76
2023/01/14 08:51:50;;;;;;;43.63;23.83;;;;;;;5.91;100.00;94933.25;5024676;28;20204;-83
2023/01/14 08:54:17;;;;;;;47.03;25.73;;;;;;;5.97;100.00;94941.06;5026332;28;20796;-79
2023/01/14 08:56:44;;;;;;;48.03;26.37;;;;;;;6.01;100.00;94939.69;5025377;28;20194;-78
2023/01/14 08:59:12;;;;;;;49.27;25.40;;;;;;;6.00;100.00;94919.25;5025187;28;20194;-81
2023/01/14 09:01:40;;;;;;;41.23;23.47;;;;;;;6.19;100.00;94936.72;5024297;28;20276;-80
2023/01/14 09:04:07;;;;;;;40.77;23.57;;;;;;;6.13;100.00;94907.28;5026391;28;20611;-80
2023/01/14 09:17:04;;;;;;;45.20;23.80;;;;;;;6.35;100.00;94926.13;5026307;28;20198;-80
2023/01/14 09:17:35;;;;;;;39.13;23.33;;;;;;;6.70;100.00;94912.31;5030117;28;20668;-83
2023/01/14 09:20:04;;;;;;;41.77;22.83;;;;;;;6.81;100.00;94914.38;5027793;28;20203;-82
2023/01/14 09:22:31;;;;;;;46.20;23.77;;;;;;;6.87;99.17;94912.84;5027045;28;20214;-82
2023/01/14 09:25:00;;;;;;;43.80;23.33;;;;;;;6.93;99.41;94913.88;5026133;28;20280;-84
2023/01/14 09:27:29;;;;;;;42.83;24.27;;;;;;;6.81;99.93;94913.63;5026171;28;20209;-75
2023/01/14 09:29:56;;;;;;;45.97;24.40;;;;;;;6.78;99.80;94904.44;5023658;28;20198;-75
2023/01/14 09:32:22;;;;;;;45.77;25.27;;;;;;;6.94;99.80;94907.72;5022605;28;20587;-76
2023/01/14 09:34:52;;;;;;;41.37;25.63;;;;;;;7.00;99.42;94906.97;5023753;28;20203;-75
2023/01/14 09:37:22;;;;;;;44.83;26.83;;;;;;;7.07;99.31;94906.00;5024115;28;20214;-75
2023/01/14 09:39:49;;;;;;;50.30;29.97;;;;;;;7.24;99.90;94901.34;5021094;28;20203;-75
2023/01/14 09:42:21;;;;;;;44.77;28.37;;;;;;;7.39;99.68;94907.97;5024822;28;20199;-75
2023/01/14 09:44:51;;;;;;;49.47;27.47;;;;;;;7.56;97.83;94900.69;5027935;28;20241;-75
2023/01/14 09:47:22;;;;;;;48.47;29.20;;;;;;;7.63;97.14;94903.31;5025722;28;20203;-74
2023/01/14 09:49:51;;;;;;;48.00;27.17;;;;;;;7.77;96.28;94897.19;5027485;28;20201;-84
2023/01/14 09:52:50;;;;;;;46.87;28.07;;;;;;;7.90;96.24;94905.00;5029178;28;20480;-78
2023/01/14 09:55:22;;;;;;;46.63;28.77;;;;;;;8.00;94.76;94908.78;5025950;28;20179;-77
2023/01/14 09:57:55;;;;;;;56.50;30.00;;;;;;;7.85;93.87;94897.03;5027237;28;20693;-82
2023/01/14 10:00:34;;;;;;;54.33;30.50;;;;;;;7.86;93.93;94896.81;5028761;28;20194;-82
2023/01/14 10:03:25;;;;;;;47.77;28.63;;;;;;;7.96;94.18;94910.16;5028252;28;20199;-77
2023/01/14 10:05:57;;;;;;;45.80;27.73;;;;;;;8.09;94.81;94898.25;5024878;28;20656;-77
2023/01/14 10:08:27;;;;;;;50.60;29.00;;;;;;;8.18;94.05;94900.47;5025625;28;20203;-77
2023/01/14 10:10:54;;;;;;;46.97;28.17;;;;;;;8.24;93.26;94902.28;5028679;28;20203;-75
2023/01/14 10:13:25;;;;;;;47.47;26.57;;;;;;;8.30;92.54;94903.31;5027148;28;20202;-75
2023/01/14 10:15:56;;;;;;;37.83;24.17;;;;;;;8.33;93.01;94892.56;5024387;28;20194;-75
2023/01/14 10:18:29;;;;;;;43.17;25.77;;;;;;;8.34;91.30;94891.56;5029353;28;20190;-75
2023/01/14 10:21:00;;;;;;;36.37;23.97;;;;;;;8.29;91.92;94886.16;5025603;28;20206;-74
2023/01/14 10:23:30;;;;;;;44.93;24.70;;;;;;;8.28;91.10;94884.59;5026139;28;20198;-76
2023/01/14 10:25:58;;;;;;;43.93;27.20;;;;;;;8.21;91.37;94888.94;5026521;28;20673;-76
2023/01/14 10:28:27;;;;;;;47.53;27.10;;;;;;;8.14;90.49;94888.91;5026502;28;20198;-84
2023/01/14 10:30:55;;;;;;;41.93;26.03;;;;;;;7.91;91.10;94885.88;5026640;28;20241;-79
2023/01/14 10:33:23;;;;;;;46.63;26.90;;;;;;;7.81;91.80;94886.25;5027773;28;20188;-82
2023/01/14 10:35:55;;;;;;;47.57;27.33;;;;;;;7.64;92.94;94874.69;5027302;28;20523;-74
2023/01/14 10:38:25;;;;;;;43.63;26.87;;;;;;;7.54;93.56;94870.84;5025012;28;20206;-78
2023/01/14 10:40:55;;;;;;;50.17;29.47;;;;;;;7.49;94.43;94880.97;5026127;28;20179;-76
2023/01/14 10:43:32;;;;;;;56.53;30.60;;;;;;;7.47;94.48;94857.91;5026424;28;20202;-80
2023/01/14 10:45:59;;;;;;;52.47;30.53;;;;;;;7.53;94.41;94871.84;5026051;28;20846;-79
2023/01/14 10:48:29;;;;;;;50.43;25.97;;;;;;;7.65;94.88;94868.50;5027682;28;20198;-81
2023/01/14 10:51:35;;;;;;;43.00;25.73;;;;;;;7.69;94.95;94868.91;5027343;28;20198;-77
2023/01/14 10:54:16;;;;;;;42.60;25.10;;;;;;;7.80;93.60;94868.34;5024462;28;20225;-77
2023/01/14 10:56:48;;;;;;;42.47;25.37;;;;;;;7.77;94.00;94855.78;5022940;28;20257;-77
2023/01/14 10:59:33;;;;;;;42.43;25.70;;;;;;;7.97;94.59;94865.19;5026475;28;20249;-79
2023/01/14 11:02:00;;;;;;;42.70;25.00;;;;;;;8.14;93.82;94857.06;5027919;28;20353;-75
2023/01/14 11:04:30;;;;;;;44.87;27.60;;;;;;;8.33;91.41;94861.50;5024004;28;20253;-76
2023/01/14 11:06:58;;;;;;;49.63;28.47;;;;;;;8.50;90.97;94860.09;5024684;28;20330;-76
2023/01/14 11:09:29;;;;;;;48.63;28.30;;;;;;;8.53;90.07;94846.75;5026488;28;20235;-76
2023/01/14 11:11:57;;;;;;;44.17;25.23;;;;;;;8.70;89.58;94858.28;5023711;28;20222;-77
2023/01/14 11:14:29;;;;;;;43.87;25.87;;;;;;;8.76;87.69;94860.09;5025592;28;20733;-76
2023/01/14 11:16:56;;;;;;;40.70;23.90;;;;;;;8.89;87.61;94851.47;5026026;28;20685;-78
2023/01/14 11:19:25;;;;;;;39.27;24.60;;;;;;;8.90;86.91;94859.06;5024878;28;20191;-77
2023/01/14 11:21:53;;;;;;;39.33;23.53;;;;;;;8.70;87.27;94854.91;5024639;28;20582;-78
2023/01/14 11:24:35;;;;;;;34.33;22.13;;;;;;;8.61;87.16;94850.91;5026960;28;20210;-78
2023/01/14 11:27:04;;;;;;;40.90;23.90;;;;;;;8.62;88.10;94853.31;5025613;28;20202;-77
2023/01/14 11:29:34;;;;;;;34.70;21.63;;;;;;;8.81;87.53;94856.88;5025880;28;20210;-77
2023/01/14 11:32:08;;;;;;;31.93;20.07;;;;;;;8.94;87.43;94852.47;5027863;28;20225;-81
2023/01/14 11:34:37;;;;;;;34.90;21.63;;;;;;;9.06;86.69;94856.03;5026246;28;20195;-79
2023/01/14 11:37:08;;;;;;;33.03;19.53;;;;;;;8.82;86.49;94859.28;5024812;28;20578;-79
2023/01/14 11:39:38;;;;;;;21.70;14.63;;;;;;;8.53;87.10;94847.56;5025707;28;20554;-76
2023/01/14 11:42:23;;;;;;;23.10;14.83;;;;;;;8.37;89.11;94854.91;5027170;28;20201;-76
2023/01/14 11:44:58;;;;;;;21.40;14.10;;;;;;;8.24;89.36;94860.84;5024248;28;20214;-75
2023/01/14 11:47:26;;;;;;;30.37;15.40;;;;;;;8.06;89.60;94860.63;5023945;28;20218;-77
2023/01/14 11:50:11;;;;;;;24.73;15.13;;;;;;;7.83;91.82;94861.00;5026729;28;20326;-75
2023/01/14 11:52:38;;;;;;;22.73;15.03;;;;;;;7.77;92.53;94863.56;5025113;28;20301;-75
2023/01/14 11:55:14;;;;;;;23.57;14.00;;;;;;;7.79;93.14;94859.00;5025146;28;20194;-76